Wolf Lake, Minnesota
Current Conditions -  °F | °C
As of 2:53 AM on Monday 24 Nov 2014 (Local Time) from KPKD Reporting Station
Overcast Overcast  
Wind Chill:   Ceiling: 1100
Heat Index: 17°   Visibility: 10mi
Dew Point: 14°   Wind: 15mph
Humidity: 88%   Direction: 330°NNW
Pressure: 29.41"   Gusts: NA
Location:  46.8°N, 95.35°W
Report Text: KPKD 240853Z AUTO 33013KT 10SM OVC011 M08/M10 A2941 RMK AO2 SLP979 T10831100 55003
Loading
Personal Weather Stations






























Interactive Weather Map New forecast layout! Learn more

10-Day Weather Forecast

Advertisements
Track Severe Weather on mobile